Time;durP1;ratioP1;P1;durP2;ratioP2;P2;SDS_P1;SDS_P2;PMS_P1;PMS_P2;Temp;Humidity;BMP_temperature;BMP_pressure;BME280_temperature;BME280_humidity;BME280_pressure;Samples;Min_cycle;Max_cycle;Signal;HPM_P1;HPM_P2
2021/08/19 00:00:27;;;;;;;2.50;1.30;;;19.40;76.20;;;;;;6226713;28;20463;-76
2021/08/19 00:03:30;;;;;;;2.78;0.95;;;19.40;76.30;;;;;;6225953;28;20498;-78
2021/08/19 00:06:33;;;;;;;2.80;1.20;;;19.40;76.30;;;;;;6226801;28;20437;-78
2021/08/19 00:09:36;;;;;;;2.83;1.48;;;19.40;76.60;;;;;;6225856;28;20448;-78
2021/08/19 00:12:38;;;;;;;3.55;1.10;;;19.40;76.70;;;;;;6225711;28;20463;-77
2021/08/19 00:15:39;;;;;;;1.30;1.20;;;19.40;76.70;;;;;;6222863;28;20436;-78
2021/08/19 00:18:41;;;;;;;1.63;1.52;;;19.30;76.40;;;;;;6231463;28;20517;-78
2021/08/19 00:21:45;;;;;;;3.10;1.10;;;19.30;76.60;;;;;;6232120;28;20421;-78
2021/08/19 00:24:46;;;;;;;3.00;1.65;;;19.40;76.60;;;;;;6230102;28;20510;-78
2021/08/19 00:27:48;;;;;;;1.52;1.40;;;19.30;76.60;;;;;;6229538;28;20413;-78
2021/08/19 00:30:50;;;;;;;1.63;1.30;;;19.30;76.70;;;;;;6227030;28;20819;-78
2021/08/19 00:33:52;;;;;;;3.93;1.40;;;19.30;77.60;;;;;;6225945;28;20471;-78
2021/08/19 00:36:56;;;;;;;2.10;1.60;;;19.20;77.10;;;;;;6215360;28;20496;-78
2021/08/19 00:39:57;;;;;;;1.80;1.50;;;19.20;76.90;;;;;;6224488;28;20420;-77
2021/08/19 00:43:01;;;;;;;5.35;1.80;;;19.20;77.30;;;;;;6224704;28;20523;-78
2021/08/19 00:46:03;;;;;;;2.80;1.85;;;19.20;76.80;;;;;;6225266;28;20891;-78
2021/08/19 00:49:06;;;;;;;2.75;1.60;;;19.20;76.40;;;;;;6225343;28;20417;-78
2021/08/19 00:52:11;;;;;;;3.70;1.50;;;19.20;76.70;;;;;;6224613;28;20777;-78
2021/08/19 00:55:14;;;;;;;2.78;1.65;;;19.20;77.00;;;;;;6224664;28;20496;-78
2021/08/19 00:58:16;;;;;;;2.13;1.60;;;19.20;76.60;;;;;;6225074;28;20468;-78
2021/08/19 01:01:18;;;;;;;3.65;2.17;;;19.20;76.30;;;;;;6224794;28;20548;-78
2021/08/19 01:04:20;;;;;;;3.17;1.73;;;19.20;76.30;;;;;;6225944;28;20493;-78
2021/08/19 01:07:23;;;;;;;2.65;1.85;;;19.20;76.20;;;;;;6226458;28;20421;-78
2021/08/19 01:10:26;;;;;;;3.80;2.17;;;19.20;75.90;;;;;;6226958;28;20990;-78
2021/08/19 01:13:28;;;;;;;2.75;2.35;;;19.20;75.80;;;;;;6227540;28;20440;-77
2021/08/19 01:16:30;;;;;;;4.45;2.10;;;19.20;76.00;;;;;;6226440;28;20421;-78
2021/08/19 01:19:32;;;;;;;3.20;2.03;;;19.20;76.00;;;;;;6229140;28;20502;-78
2021/08/19 01:22:35;;;;;;;3.83;2.05;;;19.20;75.90;;;;;;6227300;28;20436;-79
2021/08/19 01:25:37;;;;;;;3.33;1.83;;;19.20;75.70;;;;;;6228092;28;20496;-78
2021/08/19 01:28:41;;;;;;;4.65;2.30;;;19.20;75.70;;;;;;6228067;28;20486;-78
2021/08/19 01:31:57;;;;;;;2.90;1.50;;;19.20;75.70;;;;;;6226689;28;20511;-78
2021/08/19 01:34:59;;;;;;;6.03;1.90;;;19.20;75.70;;;;;;6226844;28;20436;-78
2021/08/19 01:38:01;;;;;;;3.05;1.90;;;19.20;75.70;;;;;;6209569;28;20458;-77
2021/08/19 01:41:03;;;;;;;2.67;1.93;;;19.20;75.60;;;;;;6200242;28;20477;-78
2021/08/19 01:44:07;;;;;;;3.63;2.20;;;19.20;75.70;;;;;;6200114;28;20559;-78
2021/08/19 01:47:11;;;;;;;4.13;2.45;;;19.20;75.30;;;;;;6202984;28;20514;-78
2021/08/19 01:50:13;;;;;;;3.92;2.85;;;19.20;75.30;;;;;;6226522;28;20540;-77
2021/08/19 01:53:15;;;;;;;2.85;2.33;;;19.10;75.50;;;;;;6223325;28;20487;-78
2021/08/19 01:56:18;;;;;;;3.05;2.47;;;19.10;75.40;;;;;;6225926;28;20769;-77
2021/08/19 01:59:21;;;;;;;2.45;2.20;;;19.10;75.40;;;;;;6228962;28;20428;-77
2021/08/19 02:02:23;;;;;;;5.90;1.92;;;19.10;75.50;;;;;;6233902;28;20504;-77
2021/08/19 02:05:26;;;;;;;4.95;2.13;;;19.10;75.80;;;;;;6224011;28;20944;-78
2021/08/19 02:08:28;;;;;;;2.55;2.10;;;19.10;75.90;;;;;;6221632;28;20421;-78
2021/08/19 02:11:29;;;;;;;2.95;2.47;;;19.10;75.40;;;;;;6222069;28;20491;-78
2021/08/19 02:14:33;;;;;;;2.87;2.40;;;19.10;75.50;;;;;;6222240;28;20539;-78
2021/08/19 02:17:34;;;;;;;3.22;2.00;;;19.10;75.60;;;;;;6223006;28;20427;-78
2021/08/19 02:20:36;;;;;;;4.90;2.30;;;19.10;75.60;;;;;;6223828;28;21019;-78
2021/08/19 02:23:38;;;;;;;6.38;2.38;;;19.10;75.70;;;;;;6224013;28;20419;-77
2021/08/19 02:26:40;;;;;;;3.30;2.13;;;19.10;75.70;;;;;;6221763;28;20522;-78
2021/08/19 02:29:43;;;;;;;3.60;2.40;;;19.10;75.40;;;;;;6222391;28;20832;-77
2021/08/19 02:32:52;;;;;;;2.58;2.05;;;19.10;75.30;;;;;;6222945;28;20420;-77
2021/08/19 02:35:54;;;;;;;2.67;1.90;;;19.10;75.30;;;;;;6221980;28;20416;-77
2021/08/19 02:38:56;;;;;;;2.35;1.98;;;19.20;75.30;;;;;;6235699;28;20593;-78
2021/08/19 02:41:58;;;;;;;2.33;1.80;;;19.20;75.00;;;;;;6247612;28;20478;-77
2021/08/19 02:45:01;;;;;;;4.22;2.05;;;19.20;75.10;;;;;;6247175;28;20439;-77
2021/08/19 02:48:03;;;;;;;2.42;2.22;;;19.20;74.90;;;;;;6247561;28;20442;-77
2021/08/19 02:51:05;;;;;;;2.67;2.03;;;19.20;75.00;;;;;;6247858;28;20407;-77
2021/08/19 02:54:07;;;;;;;3.50;1.90;;;19.20;75.00;;;;;;6246833;28;20516;-78
2021/08/19 02:57:09;;;;;;;2.88;2.20;;;19.20;75.00;;;;;;6246829;28;20996;-77
2021/08/19 03:00:14;;;;;;;3.35;1.58;;;19.20;75.10;;;;;;6247839;28;20490;-79
2021/08/19 03:03:16;;;;;;;2.20;2.00;;;19.20;75.20;;;;;;6249105;28;20485;-78
2021/08/19 03:06:17;;;;;;;2.33;2.05;;;19.20;75.00;;;;;;6247122;28;20493;-78
2021/08/19 03:09:19;;;;;;;3.33;2.25;;;19.20;75.30;;;;;;6247464;28;20443;-78
2021/08/19 03:12:21;;;;;;;2.70;2.30;;;19.20;75.00;;;;;;6247388;28;20415;-78
2021/08/19 03:15:24;;;;;;;2.27;2.07;;;19.20;74.80;;;;;;6247889;28;20496;-78
2021/08/19 03:18:26;;;;;;;3.15;2.55;;;19.20;75.00;;;;;;6249074;28;20459;-78
2021/08/19 03:21:28;;;;;;;3.28;2.00;;;19.20;75.10;;;;;;6248758;28;20900;-78
2021/08/19 03:24:31;;;;;;;3.10;2.00;;;19.20;75.20;;;;;;6251992;28;20509;-78
2021/08/19 03:27:33;;;;;;;2.67;1.50;;;19.10;75.50;;;;;;6251499;28;20552;-78
2021/08/19 03:30:37;;;;;;;5.30;2.37;;;19.10;75.70;;;;;;6252958;28;20439;-77
2021/08/19 03:33:38;;;;;;;1.92;1.67;;;19.10;75.90;;;;;;6251346;28;20906;-78
2021/08/19 03:36:40;;;;;;;1.95;1.75;;;19.10;75.60;;;;;;6251503;28;20427;-78
2021/08/19 03:39:42;;;;;;;2.50;2.30;;;19.10;75.60;;;;;;6238717;28;20425;-77
2021/08/19 03:42:44;;;;;;;2.00;1.80;;;19.20;75.70;;;;;;6251987;28;20437;-77
2021/08/19 03:45:48;;;;;;;5.70;1.63;;;19.10;75.90;;;;;;6251655;28;20488;-78
2021/08/19 03:48:50;;;;;;;3.42;1.90;;;19.10;76.00;;;;;;6251662;28;20415;-78
2021/08/19 03:51:52;;;;;;;4.28;1.38;;;19.10;76.00;;;;;;6248627;28;21023;-77
2021/08/19 03:54:54;;;;;;;3.60;1.70;;;19.10;76.30;;;;;;6247604;28;20430;-77
2021/08/19 03:57:56;;;;;;;3.25;1.50;;;19.10;76.30;;;;;;6248975;28;20516;-77
2021/08/19 04:01:00;;;;;;;3.03;1.50;;;19.20;76.30;;;;;;6247924;28;20419;-77
2021/08/19 04:04:02;;;;;;;1.98;1.40;;;19.20;76.10;;;;;;6247745;28;20826;-77
2021/08/19 04:07:04;;;;;;;2.40;1.50;;;19.20;76.00;;;;;;6247450;28;20414;-77
2021/08/19 04:10:07;;;;;;;3.17;2.03;;;19.30;75.80;;;;;;6248632;28;20489;-77
2021/08/19 04:13:09;;;;;;;2.60;1.60;;;19.30;75.80;;;;;;6247571;28;20524;-77
2021/08/19 04:16:12;;;;;;;2.35;1.48;;;19.30;75.80;;;;;;6247470;28;20458;-77
2021/08/19 04:19:14;;;;;;;2.38;1.58;;;19.30;75.70;;;;;;6247550;28;20869;-77
2021/08/19 04:22:16;;;;;;;3.53;2.00;;;19.30;75.60;;;;;;6248101;28;20553;-77
2021/08/19 04:25:18;;;;;;;2.72;1.70;;;19.30;75.60;;;;;;6247268;28;20430;-77
2021/08/19 04:28:19;;;;;;;8.38;2.60;;;19.30;75.40;;;;;;6247664;28;20490;-77
2021/08/19 04:31:23;;;;;;;3.10;1.48;;;19.30;75.40;;;;;;6247248;28;20524;-77
2021/08/19 04:34:24;;;;;;;2.53;1.60;;;19.30;75.30;;;;;;6246710;28;20489;-77
2021/08/19 04:37:26;;;;;;;2.30;2.00;;;19.40;75.30;;;;;;6247512;28;20495;-77
2021/08/19 04:40:28;;;;;;;2.15;1.70;;;19.40;75.30;;;;;;6237032;28;20479;-77
2021/08/19 04:43:31;;;;;;;2.00;1.45;;;19.40;75.20;;;;;;6240563;28;20511;-77
2021/08/19 04:46:34;;;;;;;2.10;1.80;;;19.40;74.90;;;;;;6220706;28;20538;-77
2021/08/19 04:49:36;;;;;;;11.00;1.90;;;19.50;75.10;;;;;;6222649;28;20424;-77
2021/08/19 04:52:38;;;;;;;2.42;1.48;;;19.50;74.80;;;;;;6222476;28;20424;-77
2021/08/19 04:55:40;;;;;;;2.33;1.65;;;19.50;75.00;;;;;;6224526;28;20499;-78
2021/08/19 04:58:42;;;;;;;1.92;1.42;;;19.50;75.30;;;;;;6224760;28;20471;-78
2021/08/19 05:01:45;;;;;;;2.83;1.85;;;19.50;74.40;;;;;;6270511;23;20466;-80
2021/08/19 05:04:47;;;;;;;2.47;1.90;;;19.60;74.90;;;;;;6303332;28;20417;-81
2021/08/19 05:07:49;;;;;;;1.98;1.70;;;19.60;75.10;;;;;;6303785;28;20405;-81
2021/08/19 05:10:51;;;;;;;1.85;1.27;;;19.60;74.90;;;;;;6290437;28;20426;-80
2021/08/19 05:13:57;;;;;;;3.87;1.67;;;19.60;74.90;;;;;;6273500;28;20429;-80
2021/08/19 05:17:00;;;;;;;1.65;1.50;;;19.70;75.30;;;;;;6272415;28;20417;-80
2021/08/19 05:20:02;;;;;;;2.47;1.38;;;19.70;75.00;;;;;;6272522;28;20425;-80
2021/08/19 05:23:03;;;;;;;3.17;1.73;;;19.70;74.90;;;;;;6271767;28;20479;-80
2021/08/19 05:26:06;;;;;;;2.10;1.42;;;19.70;74.70;;;;;;6271538;28;20469;-80
2021/08/19 05:29:07;;;;;;;1.70;1.60;;;19.70;74.60;;;;;;6271467;28;20503;-80
2021/08/19 05:32:11;;;;;;;2.30;1.45;;;19.80;74.70;;;;;;6271069;28;20506;-80
2021/08/19 05:35:12;;;;;;;1.87;1.47;;;19.80;74.20;;;;;;6270950;28;20981;-80
2021/08/19 05:38:14;;;;;;;2.45;1.30;;;19.80;74.30;;;;;;6272181;28;20460;-80
2021/08/19 05:41:16;;;;;;;2.45;1.48;;;19.80;74.10;;;;;;6270665;28;20453;-80
2021/08/19 05:44:18;;;;;;;8.55;1.42;;;20.00;74.60;;;;;;6270738;28;20547;-80
2021/08/19 05:47:21;;;;;;;2.47;1.10;;;19.90;74.50;;;;;;6270894;28;20851;-80
2021/08/19 05:50:23;;;;;;;1.70;1.50;;;20.00;74.50;;;;;;6271739;28;20998;-79
2021/08/19 05:53:25;;;;;;;1.85;1.17;;;20.00;73.90;;;;;;6270723;28;20780;-80
2021/08/19 05:56:26;;;;;;;1.50;1.10;;;20.10;73.90;;;;;;6270951;28;20430;-80
2021/08/19 05:59:28;;;;;;;2.00;0.90;;;20.10;74.10;;;;;;6271208;28;20441;-80
2021/08/19 06:02:31;;;;;;;1.95;1.15;;;20.20;73.70;;;;;;6271400;28;20465;-80
2021/08/19 06:05:38;;;;;;;1.20;1.10;;;20.30;73.50;;;;;;6253063;28;20522;-81
2021/08/19 06:08:39;;;;;;;2.25;1.30;;;20.40;73.10;;;;;;6246671;28;20430;-80
2021/08/19 06:11:41;;;;;;;2.40;1.60;;;20.40;72.70;;;;;;6246324;28;20502;-80
2021/08/19 06:14:43;;;;;;;3.17;1.45;;;20.40;72.30;;;;;;6247151;28;20490;-79
2021/08/19 06:17:46;;;;;;;2.90;1.55;;;20.30;72.30;;;;;;6267311;28;20435;-80
2021/08/19 06:20:49;;;;;;;3.90;1.60;;;20.30;72.70;;;;;;6271224;28;20506;-80
2021/08/19 06:23:51;;;;;;;2.83;1.55;;;20.30;72.10;;;;;;6270411;28;20426;-79
2021/08/19 06:26:53;;;;;;;2.78;1.60;;;20.30;72.30;;;;;;6271197;28;20522;-80
2021/08/19 06:29:54;;;;;;;2.80;1.85;;;20.30;71.80;;;;;;6271684;28;20514;-79
2021/08/19 06:32:58;;;;;;;5.78;1.52;;;20.40;71.80;;;;;;6270809;28;20496;-80
2021/08/19 06:35:59;;;;;;;2.72;1.50;;;20.50;71.90;;;;;;6271258;28;20503;-80
2021/08/19 06:39:01;;;;;;;3.10;1.48;;;20.50;71.60;;;;;;6271957;28;20524;-80
2021/08/19 06:42:03;;;;;;;3.50;1.80;;;20.60;71.40;;;;;;6266474;28;20804;-80
2021/08/19 06:45:06;;;;;;;3.38;2.08;;;20.70;71.70;;;;;;6247256;28;20833;-80
2021/08/19 06:48:09;;;;;;;3.85;1.85;;;20.70;71.50;;;;;;6247530;28;20514;-80
2021/08/19 06:51:11;;;;;;;2.70;2.25;;;20.70;71.70;;;;;;6247502;28;20508;-80
2021/08/19 06:54:13;;;;;;;3.40;2.40;;;20.70;71.90;;;;;;6248354;28;20566;-80
2021/08/19 06:57:15;;;;;;;3.05;2.17;;;20.60;72.00;;;;;;6246852;28;20494;-80
2021/08/19 07:00:17;;;;;;;3.10;1.85;;;20.60;72.30;;;;;;6247330;28;20419;-80
2021/08/19 07:03:20;;;;;;;2.22;1.65;;;20.70;71.60;;;;;;6246949;28;20490;-80
2021/08/19 07:06:22;;;;;;;3.00;2.00;;;20.70;71.50;;;;;;6248241;28;20508;-80
2021/08/19 07:09:24;;;;;;;4.43;2.33;;;20.70;72.70;;;;;;6250102;28;20485;-80
2021/08/19 07:12:26;;;;;;;2.30;2.03;;;20.80;72.30;;;;;;6247289;28;20481;-80
2021/08/19 07:15:29;;;;;;;3.23;2.43;;;20.80;72.50;;;;;;6256090;28;20443;-81
2021/08/19 07:18:32;;;;;;;4.55;2.80;;;20.80;72.40;;;;;;6256810;28;20438;-80
2021/08/19 07:21:34;;;;;;;3.95;2.10;;;20.80;72.30;;;;;;6254236;28;20442;-79
2021/08/19 07:24:35;;;;;;;4.45;2.67;;;20.70;72.30;;;;;;6254574;28;20960;-80
2021/08/19 07:27:37;;;;;;;4.10;2.85;;;20.60;71.80;;;;;;6255473;28;20475;-81
2021/08/19 07:30:40;;;;;;;4.13;2.60;;;20.50;73.90;;;;;;6254059;28;20391;-80
2021/08/19 07:33:43;;;;;;;2.60;2.22;;;20.60;73.10;;;;;;6256714;28;20929;-81
2021/08/19 07:36:45;;;;;;;3.75;2.47;;;20.70;73.30;;;;;;6257378;28;20488;-82
2021/08/19 07:39:47;;;;;;;3.70;1.98;;;20.90;73.10;;;;;;6258882;28;20411;-80
2021/08/19 07:42:50;;;;;;;4.20;1.95;;;21.20;72.00;;;;;;6268094;28;20482;-81
2021/08/19 07:45:52;;;;;;;2.97;1.95;;;21.40;71.60;;;;;;6283570;28;20455;-81
2021/08/19 07:48:58;;;;;;;4.25;2.53;;;21.80;70.20;;;;;;6282465;28;20439;-81
2021/08/19 07:52:01;;;;;;;3.25;2.30;;;22.30;68.70;;;;;;6281641;28;20754;-81
2021/08/19 07:55:03;;;;;;;3.60;1.88;;;22.50;67.90;;;;;;6283625;28;20453;-81
2021/08/19 07:58:05;;;;;;;2.78;2.15;;;22.50;65.80;;;;;;6287185;28;20454;-80
2021/08/19 08:01:07;;;;;;;4.03;2.30;;;22.60;65.80;;;;;;6272137;28;20437;-82
2021/08/19 08:04:10;;;;;;;3.03;2.42;;;22.70;65.50;;;;;;6271013;28;20543;-80
2021/08/19 08:07:12;;;;;;;4.03;2.42;;;22.90;64.60;;;;;;6272527;28;20781;-80
2021/08/19 08:10:14;;;;;;;2.70;2.30;;;23.00;64.30;;;;;;6276652;28;20487;-80
2021/08/19 08:13:16;;;;;;;2.20;1.80;;;23.20;64.50;;;;;;6278359;28;20496;-80
2021/08/19 08:16:18;;;;;;;2.63;1.73;;;23.30;63.10;;;;;;6276527;28;20417;-81
2021/08/19 08:19:21;;;;;;;2.13;1.70;;;23.30;62.60;;;;;;6279019;28;20418;-82
2021/08/19 08:22:23;;;;;;;1.83;1.63;;;23.30;62.60;;;;;;6275226;28;20524;-81
2021/08/19 08:25:25;;;;;;;3.55;1.58;;;23.30;62.80;;;;;;6275948;28;20460;-79
2021/08/19 08:28:30;;;;;;;2.92;1.70;;;23.50;60.70;;;;;;6275326;28;20492;-79
2021/08/19 08:31:33;;;;;;;2.30;1.83;;;23.70;60.00;;;;;;6277054;28;20424;-80
2021/08/19 08:34:38;;;;;;;2.50;2.10;;;23.70;59.20;;;;;;6275515;28;20915;-80
2021/08/19 08:37:40;;;;;;;2.03;1.80;;;23.60;60.30;;;;;;6275571;28;20498;-80
2021/08/19 08:40:45;;;;;;;2.15;1.70;;;23.60;59.60;;;;;;6274815;28;20924;-80
2021/08/19 08:43:49;;;;;;;3.80;2.25;;;23.60;61.00;;;;;;6269196;28;20422;-80
2021/08/19 08:46:51;;;;;;;3.50;1.65;;;23.50;60.80;;;;;;6273299;28;20439;-80
2021/08/19 08:49:54;;;;;;;3.00;1.70;;;23.50;60.70;;;;;;6278559;28;20432;-80
2021/08/19 08:52:58;;;;;;;3.33;1.73;;;23.50;60.50;;;;;;6275808;28;20924;-80
2021/08/19 08:56:00;;;;;;;3.40;2.22;;;23.70;60.10;;;;;;6277345;28;20420;-80
2021/08/19 08:59:02;;;;;;;4.63;2.38;;;23.60;60.20;;;;;;6276507;28;20901;-80
2021/08/19 09:02:05;;;;;;;2.22;1.98;;;23.60;60.40;;;;;;6276228;28;20429;-80
2021/08/19 09:05:15;;;;;;;4.90;2.38;;;23.70;60.00;;;;;;6277128;28;20465;-80
2021/08/19 09:08:19;;;;;;;9.18;2.63;;;24.00;59.30;;;;;;6275171;28;20424;-81
2021/08/19 09:11:20;;;;;;;3.77;2.17;;;24.10;58.80;;;;;;6277053;28;20436;-80
2021/08/19 09:14:24;;;;;;;3.78;1.80;;;24.20;58.60;;;;;;6276535;28;20791;-80
2021/08/19 09:17:40;;;;;;;2.10;1.50;;;24.20;58.70;;;;;;6276093;28;20508;-80
2021/08/19 09:20:44;;;;;;;2.88;2.10;;;24.30;58.60;;;;;;6275441;28;20466;-80
2021/08/19 09:23:46;;;;;;;2.05;1.80;;;24.40;57.60;;;;;;6277145;28;20499;-80
2021/08/19 09:26:49;;;;;;;2.05;1.75;;;24.50;57.40;;;;;;6276360;28;20437;-81
2021/08/19 09:29:52;;;;;;;3.15;2.78;;;24.60;58.50;;;;;;6276874;28;20900;-79
2021/08/19 09:32:54;;;;;;;3.00;2.10;;;24.60;56.60;;;;;;6274784;28;20413;-80
2021/08/19 09:36:00;;;;;;;2.33;2.05;;;24.50;57.00;;;;;;6275227;28;20455;-80
2021/08/19 09:39:05;;;;;;;2.97;2.10;;;24.60;57.40;;;;;;6278182;28;20436;-80
2021/08/19 09:42:08;;;;;;;4.97;2.83;;;24.80;56.30;;;;;;6274494;28;20425;-81
2021/08/19 09:45:19;;;;;;;3.45;2.30;;;25.00;56.10;;;;;;6274541;28;20484;-80
2021/08/19 09:48:29;;;;;;;3.30;1.97;;;25.30;55.60;;;;;;6277939;28;20420;-79
2021/08/19 09:51:32;;;;;;;2.80;1.90;;;25.40;55.50;;;;;;6276351;28;20417;-80
2021/08/19 09:54:36;;;;;;;2.20;2.00;;;25.30;55.60;;;;;;6276452;28;20433;-79
2021/08/19 09:57:38;;;;;;;3.72;1.98;;;25.30;55.10;;;;;;6274978;28;20441;-80
2021/08/19 10:00:41;;;;;;;2.88;2.30;;;25.20;54.90;;;;;;6275317;28;20443;-80
2021/08/19 10:03:43;;;;;;;4.23;2.50;;;25.10;55.70;;;;;;6277191;28;20908;-80
2021/08/19 10:06:47;;;;;;;4.30;2.50;;;25.00;56.70;;;;;;6276083;28;20437;-80
2021/08/19 10:09:49;;;;;;;4.60;2.50;;;25.10;56.20;;;;;;6279715;28;20428;-80
2021/08/19 10:12:52;;;;;;;3.08;2.63;;;25.20;55.70;;;;;;6277775;28;20437;-80
2021/08/19 10:15:55;;;;;;;3.33;2.70;;;25.50;54.50;;;;;;6278067;28;20421;-80
2021/08/19 10:19:01;;;;;;;3.60;2.20;;;25.70;54.20;;;;;;6280313;28;20491;-79
2021/08/19 10:22:08;;;;;;;3.13;2.15;;;25.90;54.20;;;;;;6279526;28;20433;-80
2021/08/19 10:25:11;;;;;;;4.20;2.03;;;26.10;53.60;;;;;;6280223;28;20413;-80
2021/08/19 10:28:15;;;;;;;5.22;2.70;;;26.40;53.60;;;;;;6280728;28;20551;-80
2021/08/19 10:31:43;;;;;;;3.70;1.80;;;26.80;52.20;;;;;;6280825;28;20436;-80
2021/08/19 10:34:57;;;;;;;1.95;1.63;;;27.00;51.00;;;;;;6281342;28;20513;-80
2021/08/19 10:38:06;;;;;;;2.13;1.80;;;26.90;50.70;;;;;;6282071;28;20522;-80
2021/08/19 10:41:42;;;;;;;1.65;1.30;;;26.60;50.00;;;;;;6279626;28;20417;-81
2021/08/19 10:44:46;;;;;;;3.60;1.80;;;26.40;49.90;;;;;;6277370;28;20424;-80
2021/08/19 10:47:48;;;;;;;3.05;1.55;;;26.40;51.20;;;;;;6263058;28;20497;-80
2021/08/19 10:50:50;;;;;;;3.17;1.80;;;26.70;51.90;;;;;;6255564;28;20470;-80
2021/08/19 10:53:53;;;;;;;2.35;2.10;;;27.30;50.40;;;;;;6256756;28;20434;-80
2021/08/19 10:56:55;;;;;;;3.23;1.87;;;27.40;49.30;;;;;;6256516;28;20917;-80
2021/08/19 10:59:58;;;;;;;3.47;2.00;;;27.30;50.20;;;;;;6256589;28;20508;-80
2021/08/19 11:02:59;;;;;;;3.60;1.75;;;27.30;50.60;;;;;;6273957;23;20586;-76
2021/08/19 11:06:02;;;;;;;3.10;1.50;;;27.40;50.20;;;;;;6223159;28;20496;-78
2021/08/19 11:09:14;;;;;;;2.00;1.33;;;27.50;48.50;;;;;;6225499;28;20429;-78
2021/08/19 11:12:25;;;;;;;2.33;1.00;;;27.60;47.20;;;;;;6224560;28;20787;-77
2021/08/19 11:15:27;;;;;;;2.22;1.00;;;27.60;46.80;;;;;;6202238;28;20829;-77
2021/08/19 11:18:31;;;;;;;1.55;0.75;;;27.50;47.80;;;;;;6200315;28;20434;-77
2021/08/19 11:21:33;;;;;;;1.38;1.17;;;27.60;46.10;;;;;;6201032;28;20445;-78
2021/08/19 11:24:39;;;;;;;1.98;1.60;;;27.70;46.30;;;;;;6200738;28;20882;-78
2021/08/19 11:27:42;;;;;;;1.45;1.13;;;27.70;46.80;;;;;;6197318;28;20497;-78
2021/08/19 11:30:46;;;;;;;1.83;1.20;;;27.60;47.40;;;;;;6198611;28;21056;-77
2021/08/19 11:33:49;;;;;;;3.08;1.52;;;27.40;47.60;;;;;;6198958;28;20473;-78
2021/08/19 11:36:52;;;;;;;1.90;1.52;;;27.40;48.70;;;;;;6200409;28;20502;-77
2021/08/19 11:39:56;;;;;;;3.40;1.50;;;27.50;48.90;;;;;;6200403;28;20425;-78
2021/08/19 11:42:57;;;;;;;2.30;1.75;;;27.50;48.30;;;;;;6201774;28;20569;-78
2021/08/19 11:46:05;;;;;;;2.40;2.08;;;27.60;48.40;;;;;;6209339;28;20439;-75
2021/08/19 11:49:11;;;;;;;2.88;1.40;;;27.60;49.80;;;;;;6226549;28;20927;-77
2021/08/19 11:52:13;;;;;;;2.42;1.67;;;27.60;48.80;;;;;;6224826;28;20551;-78
2021/08/19 11:55:27;;;;;;;1.63;1.30;;;27.70;48.70;;;;;;6233610;28;20413;-79
2021/08/19 11:58:29;;;;;;;1.48;1.38;;;27.90;47.40;;;;;;6235008;28;20491;-78
2021/08/19 12:05:24;;;;;;;2.58;1.20;;;28.30;47.00;;;;;;6233123;28;20476;-78
2021/08/19 12:08:27;;;;;;;1.80;1.30;;;28.50;46.60;;;;;;6232325;28;21172;-78
2021/08/19 12:11:31;;;;;;;3.33;1.20;;;28.60;45.40;;;;;;6231898;28;20432;-78
2021/08/19 12:14:34;;;;;;;2.15;1.67;;;28.60;46.30;;;;;;6235214;28;20479;-78
2021/08/19 12:17:36;;;;;;;2.83;1.70;;;28.50;45.90;;;;;;6232781;28;20444;-78
2021/08/19 12:20:38;;;;;;;5.60;1.83;;;28.60;46.00;;;;;;6231810;28;20502;-77
2021/08/19 12:23:40;;;;;;;2.20;1.42;;;28.80;46.60;;;;;;6229277;28;20506;-78
2021/08/19 12:27:00;;;;;;;1.60;1.30;;;28.90;46.30;;;;;;6230347;28;20529;-78
2021/08/19 12:30:07;;;;;;;1.55;0.95;;;28.70;45.40;;;;;;6232608;28;20429;-77
2021/08/19 12:33:09;;;;;;;1.00;0.70;;;28.60;44.90;;;;;;6231100;28;20429;-78
2021/08/19 12:36:17;;;;;;;1.00;0.80;;;28.70;45.20;;;;;;6231589;28;20779;-78
2021/08/19 12:39:23;;;;;;;3.00;1.13;;;28.60;43.80;;;;;;6229839;28;20492;-79
2021/08/19 12:42:33;;;;;;;1.40;1.15;;;28.50;45.20;;;;;;6231603;28;20436;-78
2021/08/19 12:45:36;;;;;;;1.40;0.90;;;28.40;42.90;;;;;;6230065;28;20461;-76
2021/08/19 12:48:38;;;;;;;2.25;0.90;;;28.40;42.90;;;;;;6229730;28;20425;-78
2021/08/19 12:51:40;;;;;;;1.95;0.90;;;28.60;43.90;;;;;;6229014;28;20427;-78
2021/08/19 12:54:53;;;;;;;0.93;0.80;;;28.60;41.40;;;;;;6230655;28;20445;-77
2021/08/19 12:57:58;;;;;;;1.02;0.80;;;28.90;41.10;;;;;;6229687;28;20775;-79
2021/08/19 13:01:00;;;;;;;2.20;0.98;;;29.00;42.40;;;;;;6227321;28;20429;-76
2021/08/19 13:04:02;;;;;;;1.70;0.77;;;28.90;42.80;;;;;;6228502;28;20504;-76
2021/08/19 13:07:12;;;;;;;1.23;1.13;;;29.00;43.20;;;;;;6230848;28;20421;-79
2021/08/19 13:10:15;;;;;;;1.35;1.00;;;29.00;43.00;;;;;;6230068;28;20432;-78
2021/08/19 13:13:19;;;;;;;1.92;1.00;;;29.00;43.40;;;;;;6228497;28;20504;-78
2021/08/19 13:16:21;;;;;;;3.70;1.37;;;28.80;44.00;;;;;;6226592;28;20464;-77
2021/08/19 13:19:23;;;;;;;2.42;1.63;;;28.60;45.20;;;;;;6230008;28;20413;-78
2021/08/19 13:22:25;;;;;;;1.63;1.35;;;28.60;44.50;;;;;;6225888;28;20460;-78
2021/08/19 13:25:27;;;;;;;3.88;1.40;;;28.50;44.50;;;;;;6226001;28;20583;-77
2021/08/19 13:28:30;;;;;;;1.80;1.20;;;28.50;44.20;;;;;;6228018;28;20494;-78
2021/08/19 13:31:32;;;;;;;1.77;1.17;;;28.50;43.80;;;;;;6228365;28;20491;-77
2021/08/19 13:34:35;;;;;;;2.17;0.90;;;28.50;42.40;;;;;;6228342;28;20490;-78
2021/08/19 13:37:37;;;;;;;2.83;1.53;;;28.30;43.00;;;;;;6225187;28;20435;-77
2021/08/19 13:40:39;;;;;;;2.60;1.17;;;28.00;44.50;;;;;;6226157;28;20432;-77
2021/08/19 13:43:43;;;;;;;2.58;1.27;;;28.00;44.80;;;;;;6227568;28;20479;-77
2021/08/19 13:46:45;;;;;;;1.05;0.88;;;28.00;45.00;;;;;;6224904;28;20515;-78
2021/08/19 13:49:46;;;;;;;0.93;0.82;;;28.00;44.50;;;;;;6223269;28;20464;-78
2021/08/19 13:52:48;;;;;;;1.60;1.25;;;27.90;44.50;;;;;;6224434;28;20421;-79
2021/08/19 13:55:50;;;;;;;2.47;1.50;;;27.90;45.20;;;;;;6225461;28;20797;-78
2021/08/19 13:58:53;;;;;;;2.30;1.60;;;27.90;46.30;;;;;;6226352;28;20522;-78
2021/08/19 14:01:55;;;;;;;2.30;1.75;;;27.90;45.80;;;;;;6225586;28;21043;-77
2021/08/19 14:04:57;;;;;;;1.63;1.45;;;27.90;45.20;;;;;;6223938;28;20433;-78
2021/08/19 14:07:59;;;;;;;1.50;1.10;;;27.70;45.80;;;;;;6223648;28;20932;-77
2021/08/19 14:11:00;;;;;;;1.98;1.25;;;27.70;45.70;;;;;;6223222;28;20595;-77
2021/08/19 14:14:04;;;;;;;1.42;1.05;;;27.60;44.40;;;;;;6210865;28;20913;-78
2021/08/19 14:17:09;;;;;;;1.02;0.93;;;27.50;44.10;;;;;;6199731;28;20489;-78
2021/08/19 14:20:12;;;;;;;1.45;1.15;;;27.40;43.40;;;;;;6199202;28;20418;-77
2021/08/19 14:23:14;;;;;;;1.50;1.00;;;27.30;43.20;;;;;;6198839;28;20486;-77
2021/08/19 14:26:16;;;;;;;3.47;1.20;;;27.30;45.10;;;;;;6200127;28;20462;-77
2021/08/19 14:29:19;;;;;;;2.30;1.20;;;27.40;44.00;;;;;;6199712;28;20430;-77
2021/08/19 14:32:21;;;;;;;3.27;1.20;;;27.50;44.60;;;;;;6199647;28;20535;-78
2021/08/19 14:35:23;;;;;;;3.67;1.07;;;27.70;44.50;;;;;;6199366;28;20530;-77
2021/08/19 14:38:25;;;;;;;1.35;1.10;;;27.90;43.80;;;;;;6200599;28;20802;-77
2021/08/19 14:41:27;;;;;;;2.30;1.30;;;27.80;43.30;;;;;;6200017;28;20557;-77
2021/08/19 14:44:30;;;;;;;1.85;1.27;;;27.60;45.00;;;;;;6198548;28;20525;-78
2021/08/19 14:47:33;;;;;;;1.75;1.33;;;27.40;45.40;;;;;;6199774;28;20526;-78
2021/08/19 14:50:35;;;;;;;1.42;1.10;;;27.40;45.00;;;;;;6217647;28;20437;-78
2021/08/19 14:53:37;;;;;;;1.40;0.80;;;27.30;44.80;;;;;;6223665;28;20420;-78
2021/08/19 14:56:40;;;;;;;2.35;1.05;;;27.10;45.90;;;;;;6223083;28;20616;-77
2021/08/19 14:59:44;;;;;;;1.70;1.48;;;27.20;46.20;;;;;;6223458;28;20428;-77
2021/08/19 15:02:46;;;;;;;1.08;0.90;;;27.30;45.90;;;;;;6223681;28;20570;-79
2021/08/19 15:05:48;;;;;;;1.40;1.27;;;27.40;45.60;;;;;;6222647;28;20468;-78
2021/08/19 15:08:50;;;;;;;1.95;1.27;;;27.20;44.70;;;;;;6224281;28;20579;-78
2021/08/19 15:11:52;;;;;;;3.63;1.38;;;27.00;45.40;;;;;;6223972;28;20912;-78
2021/08/19 15:14:55;;;;;;;2.70;1.30;;;26.90;45.80;;;;;;6222955;28;20479;-78
2021/08/19 15:17:58;;;;;;;1.83;1.02;;;26.80;47.20;;;;;;6225815;28;20527;-77
2021/08/19 15:21:01;;;;;;;4.15;1.50;;;26.70;46.50;;;;;;6228105;28;21000;-77
2021/08/19 15:24:03;;;;;;;1.87;1.33;;;26.60;47.10;;;;;;6228510;28;20463;-78
2021/08/19 15:27:06;;;;;;;1.95;1.30;;;26.50;48.10;;;;;;6228490;28;20480;-77
2021/08/19 15:30:10;;;;;;;3.88;1.60;;;26.40;49.10;;;;;;6227601;28;20436;-77
2021/08/19 15:33:12;;;;;;;1.30;1.10;;;26.30;49.50;;;;;;6225993;28;21113;-77
2021/08/19 15:36:14;;;;;;;2.00;1.27;;;26.30;48.70;;;;;;6224506;28;20919;-77
2021/08/19 15:39:16;;;;;;;3.63;1.30;;;26.30;49.30;;;;;;6226672;28;20918;-77
2021/08/19 15:42:19;;;;;;;2.92;1.73;;;26.20;49.60;;;;;;6226374;28;20527;-78
2021/08/19 15:45:23;;;;;;;1.90;1.02;;;26.20;48.70;;;;;;6224886;28;20440;-77
2021/08/19 15:48:26;;;;;;;1.30;1.10;;;26.20;49.10;;;;;;6224968;28;20421;-77
2021/08/19 15:51:28;;;;;;;2.35;1.50;;;26.20;48.00;;;;;;6224089;28;21052;-78
2021/08/19 15:54:30;;;;;;;2.50;1.40;;;26.10;48.10;;;;;;6226910;28;20440;-78
2021/08/19 15:57:32;;;;;;;1.97;1.40;;;26.10;48.50;;;;;;6226699;28;20563;-78